sensor_id;sensor_type;location;lat;lon;timestamp;temperature;humidity
31783;DHT22;18351;47.560;9.708;2024-03-08T00:02:03;2.60;99.90
31783;DHT22;18351;47.560;9.708;2024-03-08T00:04:29;2.60;99.90
31783;DHT22;18351;47.560;9.708;2024-03-08T00:06:54;2.60;99.90
31783;DHT22;18351;47.560;9.708;2024-03-08T00:09:20;2.60;99.90
31783;DHT22;18351;47.560;9.708;2024-03-08T00:11:46;2.50;99.90
31783;DHT22;18351;47.560;9.708;2024-03-08T00:14:12;2.50;99.90
31783;DHT22;18351;47.560;9.708;2024-03-08T00:16:38;2.50;99.90
31783;DHT22;18351;47.560;9.708;2024-03-08T00:19:03;2.50;99.90
31783;DHT22;18351;47.560;9.708;2024-03-08T00:21:29;2.60;99.90
31783;DHT22;18351;47.560;9.708;2024-03-08T00:23:55;2.50;99.90
31783;DHT22;18351;47.560;9.708;2024-03-08T00:26:21;2.50;99.90
31783;DHT22;18351;47.560;9.708;2024-03-08T00:28:48;2.50;99.90
31783;DHT22;18351;47.560;9.708;2024-03-08T00:31:14;2.50;99.90
31783;DHT22;18351;47.560;9.708;2024-03-08T00:33:41;2.50;99.90
31783;DHT22;18351;47.560;9.708;2024-03-08T00:36:06;2.50;99.90
31783;DHT22;18351;47.560;9.708;2024-03-08T00:38:33;2.40;99.90
31783;DHT22;18351;47.560;9.708;2024-03-08T00:40:59;2.40;99.90
31783;DHT22;18351;47.560;9.708;2024-03-08T00:43:25;2.40;99.90
31783;DHT22;18351;47.560;9.708;2024-03-08T00:45:51;2.40;99.90
31783;DHT22;18351;47.560;9.708;2024-03-08T00:48:16;2.40;99.90
31783;DHT22;18351;47.560;9.708;2024-03-08T00:50:42;2.30;99.90
31783;DHT22;18351;47.560;9.708;2024-03-08T00:53:11;2.40;99.90
31783;DHT22;18351;47.560;9.708;2024-03-08T00:55:37;2.30;99.90
31783;DHT22;18351;47.560;9.708;2024-03-08T00:58:03;2.30;99.90
31783;DHT22;18351;47.560;9.708;2024-03-08T01:00:29;2.30;99.90
31783;DHT22;18351;47.560;9.708;2024-03-08T01:02:55;2.30;99.90
31783;DHT22;18351;47.560;9.708;2024-03-08T01:05:21;2.30;99.90
31783;DHT22;18351;47.560;9.708;2024-03-08T01:07:46;2.30;99.90
31783;DHT22;18351;47.560;9.708;2024-03-08T01:10:12;2.30;99.90
31783;DHT22;18351;47.560;9.708;2024-03-08T01:12:40;2.10;99.90
31783;DHT22;18351;47.560;9.708;2024-03-08T01:15:06;2.10;99.90
31783;DHT22;18351;47.560;9.708;2024-03-08T01:17:31;2.10;99.90
31783;DHT22;18351;47.560;9.708;2024-03-08T01:19:57;2.10;99.90
31783;DHT22;18351;47.560;9.708;2024-03-08T01:22:23;2.10;99.90
31783;DHT22;18351;47.560;9.708;2024-03-08T01:24:49;2.10;99.90
31783;DHT22;18351;47.560;9.708;2024-03-08T01:27:14;2.00;99.90
31783;DHT22;18351;47.560;9.708;2024-03-08T01:29:40;1.90;99.90
31783;DHT22;18351;47.560;9.708;2024-03-08T01:32:06;2.00;99.90
31783;DHT22;18351;47.560;9.708;2024-03-08T01:34:31;1.90;99.90
31783;DHT22;18351;47.560;9.708;2024-03-08T01:36:58;2.00;99.90
31783;DHT22;18351;47.560;9.708;2024-03-08T01:39:25;2.00;99.90
31783;DHT22;18351;47.560;9.708;2024-03-08T01:41:50;2.00;99.90
31783;DHT22;18351;47.560;9.708;2024-03-08T01:44:16;1.90;99.90
31783;DHT22;18351;47.560;9.708;2024-03-08T01:46:46;1.90;99.90
31783;DHT22;18351;47.560;9.708;2024-03-08T01:49:13;1.90;99.90
31783;DHT22;18351;47.560;9.708;2024-03-08T01:51:41;1.80;99.90
31783;DHT22;18351;47.560;9.708;2024-03-08T01:54:07;1.90;99.90
31783;DHT22;18351;47.560;9.708;2024-03-08T01:56:36;1.90;99.90
31783;DHT22;18351;47.560;9.708;2024-03-08T01:59:03;1.80;99.90
31783;DHT22;18351;47.560;9.708;2024-03-08T02:01:29;1.70;99.90
31783;DHT22;18351;47.560;9.708;2024-03-08T02:03:54;1.70;99.90
31783;DHT22;18351;47.560;9.708;2024-03-08T02:06:20;1.70;99.90
31783;DHT22;18351;47.560;9.708;2024-03-08T02:08:46;1.60;99.90
31783;DHT22;18351;47.560;9.708;2024-03-08T02:11:12;1.50;99.90
31783;DHT22;18351;47.560;9.708;2024-03-08T02:13:38;1.50;99.90
31783;DHT22;18351;47.560;9.708;2024-03-08T02:16:04;1.60;99.90
31783;DHT22;18351;47.560;9.708;2024-03-08T02:18:33;1.60;99.90
31783;DHT22;18351;47.560;9.708;2024-03-08T02:21:05;1.60;99.90
31783;DHT22;18351;47.560;9.708;2024-03-08T02:23:32;1.60;99.90
31783;DHT22;18351;47.560;9.708;2024-03-08T02:25:58;1.60;99.90
31783;DHT22;18351;47.560;9.708;2024-03-08T02:28:25;1.50;99.90
31783;DHT22;18351;47.560;9.708;2024-03-08T02:30:51;1.50;99.90
31783;DHT22;18351;47.560;9.708;2024-03-08T02:33:20;1.50;99.90
31783;DHT22;18351;47.560;9.708;2024-03-08T02:35:46;1.50;99.90
31783;DHT22;18351;47.560;9.708;2024-03-08T02:38:15;1.50;99.90
31783;DHT22;18351;47.560;9.708;2024-03-08T02:40:45;1.40;99.90
31783;DHT22;18351;47.560;9.708;2024-03-08T02:43:11;1.40;99.90
31783;DHT22;18351;47.560;9.708;2024-03-08T02:45:38;1.40;99.90
31783;DHT22;18351;47.560;9.708;2024-03-08T02:48:04;1.30;99.90
31783;DHT22;18351;47.560;9.708;2024-03-08T02:50:32;1.30;99.90
31783;DHT22;18351;47.560;9.708;2024-03-08T02:52:57;1.30;99.90
31783;DHT22;18351;47.560;9.708;2024-03-08T02:55:23;1.20;99.90
31783;DHT22;18351;47.560;9.708;2024-03-08T02:57:51;1.20;99.90
31783;DHT22;18351;47.560;9.708;2024-03-08T03:00:18;1.20;99.90
31783;DHT22;18351;47.560;9.708;2024-03-08T03:02:45;1.10;99.90
31783;DHT22;18351;47.560;9.708;2024-03-08T03:05:10;1.00;99.90
31783;DHT22;18351;47.560;9.708;2024-03-08T03:07:37;1.00;99.90
31783;DHT22;18351;47.560;9.708;2024-03-08T03:10:03;1.00;99.90
31783;DHT22;18351;47.560;9.708;2024-03-08T03:12:29;1.00;99.90
31783;DHT22;18351;47.560;9.708;2024-03-08T03:14:55;1.00;99.90
31783;DHT22;18351;47.560;9.708;2024-03-08T03:17:22;1.00;99.90
31783;DHT22;18351;47.560;9.708;2024-03-08T03:19:48;0.90;99.90
31783;DHT22;18351;47.560;9.708;2024-03-08T03:22:13;0.90;99.90
31783;DHT22;18351;47.560;9.708;2024-03-08T03:24:39;0.90;99.90
31783;DHT22;18351;47.560;9.708;2024-03-08T03:27:05;0.80;99.90
31783;DHT22;18351;47.560;9.708;2024-03-08T03:29:40;0.90;99.90
31783;DHT22;18351;47.560;9.708;2024-03-08T03:32:08;0.80;99.90
31783;DHT22;18351;47.560;9.708;2024-03-08T03:34:34;0.80;99.90
31783;DHT22;18351;47.560;9.708;2024-03-08T03:37:03;0.70;99.90
31783;DHT22;18351;47.560;9.708;2024-03-08T03:39:30;0.70;99.90
31783;DHT22;18351;47.560;9.708;2024-03-08T03:42:00;0.70;99.90
31783;DHT22;18351;47.560;9.708;2024-03-08T03:44:27;0.70;99.90
31783;DHT22;18351;47.560;9.708;2024-03-08T03:46:53;0.60;99.90
31783;DHT22;18351;47.560;9.708;2024-03-08T03:49:19;0.60;99.90
31783;DHT22;18351;47.560;9.708;2024-03-08T03:51:45;0.60;99.90
31783;DHT22;18351;47.560;9.708;2024-03-08T03:54:11;0.60;99.90
31783;DHT22;18351;47.560;9.708;2024-03-08T03:56:36;0.60;99.90
31783;DHT22;18351;47.560;9.708;2024-03-08T03:59:02;0.50;99.90
31783;DHT22;18351;47.560;9.708;2024-03-08T04:01:27;0.50;99.90
31783;DHT22;18351;47.560;9.708;2024-03-08T04:03:54;0.50;99.90
31783;DHT22;18351;47.560;9.708;2024-03-08T04:06:20;0.50;99.90
31783;DHT22;18351;47.560;9.708;2024-03-08T04:08:46;0.40;99.90
31783;DHT22;18351;47.560;9.708;2024-03-08T04:11:11;0.40;99.90
31783;DHT22;18351;47.560;9.708;2024-03-08T04:13:37;0.40;99.90
31783;DHT22;18351;47.560;9.708;2024-03-08T04:16:03;0.40;99.90
31783;DHT22;18351;47.560;9.708;2024-03-08T04:18:33;0.40;99.90
31783;DHT22;18351;47.560;9.708;2024-03-08T04:21:01;0.30;99.90
31783;DHT22;18351;47.560;9.708;2024-03-08T04:23:27;0.40;99.90
31783;DHT22;18351;47.560;9.708;2024-03-08T04:25:54;0.40;99.90
31783;DHT22;18351;47.560;9.708;2024-03-08T04:28:19;0.30;99.90
31783;DHT22;18351;47.560;9.708;2024-03-08T04:30:45;0.30;99.90
31783;DHT22;18351;47.560;9.708;2024-03-08T04:33:11;0.30;99.90
31783;DHT22;18351;47.560;9.708;2024-03-08T04:35:37;0.40;99.90
31783;DHT22;18351;47.560;9.708;2024-03-08T04:38:02;0.40;99.90
31783;DHT22;18351;47.560;9.708;2024-03-08T04:40:30;0.50;99.90
31783;DHT22;18351;47.560;9.708;2024-03-08T04:42:57;0.50;99.90
31783;DHT22;18351;47.560;9.708;2024-03-08T04:45:24;0.50;99.90
31783;DHT22;18351;47.560;9.708;2024-03-08T04:47:51;0.60;99.90
31783;DHT22;18351;47.560;9.708;2024-03-08T04:50:18;0.60;99.90
31783;DHT22;18351;47.560;9.708;2024-03-08T04:52:43;0.60;99.90
31783;DHT22;18351;47.560;9.708;2024-03-08T04:55:09;0.70;99.90
31783;DHT22;18351;47.560;9.708;2024-03-08T04:57:35;0.80;99.90
31783;DHT22;18351;47.560;9.708;2024-03-08T05:00:01;0.90;99.90
31783;DHT22;18351;47.560;9.708;2024-03-08T05:02:27;0.90;99.90
31783;DHT22;18351;47.560;9.708;2024-03-08T05:04:52;0.90;99.90
31783;DHT22;18351;47.560;9.708;2024-03-08T05:07:18;0.90;99.90
31783;DHT22;18351;47.560;9.708;2024-03-08T05:09:44;0.90;99.90
31783;DHT22;18351;47.560;9.708;2024-03-08T05:12:17;1.00;99.90
31783;DHT22;18351;47.560;9.708;2024-03-08T05:14:42;1.00;99.90
31783;DHT22;18351;47.560;9.708;2024-03-08T05:17:08;1.00;99.90
31783;DHT22;18351;47.560;9.708;2024-03-08T05:19:36;1.00;99.90
31783;DHT22;18351;47.560;9.708;2024-03-08T05:22:01;1.00;99.90
31783;DHT22;18351;47.560;9.708;2024-03-08T05:24:28;1.10;99.90
31783;DHT22;18351;47.560;9.708;2024-03-08T05:26:55;1.10;99.90
31783;DHT22;18351;47.560;9.708;2024-03-08T05:29:20;1.10;99.90
31783;DHT22;18351;47.560;9.708;2024-03-08T05:31:51;1.20;99.90
31783;DHT22;18351;47.560;9.708;2024-03-08T05:34:20;1.20;99.90
31783;DHT22;18351;47.560;9.708;2024-03-08T05:36:47;1.30;99.90
31783;DHT22;18351;47.560;9.708;2024-03-08T05:39:15;1.30;99.90
31783;DHT22;18351;47.560;9.708;2024-03-08T05:41:41;1.40;99.90
31783;DHT22;18351;47.560;9.708;2024-03-08T05:44:08;1.40;99.90
31783;DHT22;18351;47.560;9.708;2024-03-08T05:46:34;1.50;99.90
31783;DHT22;18351;47.560;9.708;2024-03-08T05:49:01;1.50;99.90
31783;DHT22;18351;47.560;9.708;2024-03-08T05:51:34;1.50;99.90
31783;DHT22;18351;47.560;9.708;2024-03-08T05:54:09;1.50;99.90
31783;DHT22;18351;47.560;9.708;2024-03-08T05:56:36;1.60;99.90
31783;DHT22;18351;47.560;9.708;2024-03-08T05:59:02;1.60;99.90
31783;DHT22;18351;47.560;9.708;2024-03-08T06:01:28;1.60;99.90
31783;DHT22;18351;47.560;9.708;2024-03-08T06:03:54;1.70;99.90
31783;DHT22;18351;47.560;9.708;2024-03-08T06:06:23;1.70;99.90
31783;DHT22;18351;47.560;9.708;2024-03-08T06:08:49;1.70;99.90
31783;DHT22;18351;47.560;9.708;2024-03-08T06:11:16;1.60;99.90
31783;DHT22;18351;47.560;9.708;2024-03-08T06:13:43;1.60;99.90
31783;DHT22;18351;47.560;9.708;2024-03-08T06:16:08;1.60;99.90
31783;DHT22;18351;47.560;9.708;2024-03-08T06:18:35;1.70;99.90
31783;DHT22;18351;47.560;9.708;2024-03-08T06:21:04;1.80;99.90
31783;DHT22;18351;47.560;9.708;2024-03-08T06:23:40;1.80;99.90
31783;DHT22;18351;47.560;9.708;2024-03-08T06:26:05;1.90;99.90
31783;DHT22;18351;47.560;9.708;2024-03-08T06:28:31;1.90;99.90
31783;DHT22;18351;47.560;9.708;2024-03-08T06:30:58;1.90;99.90
31783;DHT22;18351;47.560;9.708;2024-03-08T06:33:24;1.90;99.90
31783;DHT22;18351;47.560;9.708;2024-03-08T06:35:54;2.00;99.90
31783;DHT22;18351;47.560;9.708;2024-03-08T06:38:25;1.90;99.90
31783;DHT22;18351;47.560;9.708;2024-03-08T06:40:51;2.00;99.90
31783;DHT22;18351;47.560;9.708;2024-03-08T06:43:17;1.90;99.90
31783;DHT22;18351;47.560;9.708;2024-03-08T06:45:47;2.00;99.90
31783;DHT22;18351;47.560;9.708;2024-03-08T06:48:18;2.00;99.90
31783;DHT22;18351;47.560;9.708;2024-03-08T06:50:47;2.00;99.90
31783;DHT22;18351;47.560;9.708;2024-03-08T06:53:13;2.00;99.90
31783;DHT22;18351;47.560;9.708;2024-03-08T06:55:39;2.10;99.90
31783;DHT22;18351;47.560;9.708;2024-03-08T06:58:05;2.10;99.90
31783;DHT22;18351;47.560;9.708;2024-03-08T07:00:32;2.20;99.90
31783;DHT22;18351;47.560;9.708;2024-03-08T07:02:57;2.30;99.90
31783;DHT22;18351;47.560;9.708;2024-03-08T07:05:26;2.30;99.90
31783;DHT22;18351;47.560;9.708;2024-03-08T07:07:52;2.30;99.90
31783;DHT22;18351;47.560;9.708;2024-03-08T07:10:18;2.40;99.90
31783;DHT22;18351;47.560;9.708;2024-03-08T07:12:44;2.50;99.90
31783;DHT22;18351;47.560;9.708;2024-03-08T07:15:12;2.50;99.90
31783;DHT22;18351;47.560;9.708;2024-03-08T07:17:41;2.50;99.90
31783;DHT22;18351;47.560;9.708;2024-03-08T07:20:10;2.40;99.90
31783;DHT22;18351;47.560;9.708;2024-03-08T07:22:38;2.40;99.90
31783;DHT22;18351;47.560;9.708;2024-03-08T07:25:05;2.30;99.90
31783;DHT22;18351;47.560;9.708;2024-03-08T07:27:53;2.30;99.90
31783;DHT22;18351;47.560;9.708;2024-03-08T07:30:28;2.30;99.90
31783;DHT22;18351;47.560;9.708;2024-03-08T07:33:09;2.40;99.90
31783;DHT22;18351;47.560;9.708;2024-03-08T07:35:37;2.50;99.90
31783;DHT22;18351;47.560;9.708;2024-03-08T07:38:06;2.50;99.90
31783;DHT22;18351;47.560;9.708;2024-03-08T07:40:35;2.50;99.90
31783;DHT22;18351;47.560;9.708;2024-03-08T07:43:02;2.60;99.90
31783;DHT22;18351;47.560;9.708;2024-03-08T07:45:28;2.60;99.90
31783;DHT22;18351;47.560;9.708;2024-03-08T07:47:54;2.60;99.90
31783;DHT22;18351;47.560;9.708;2024-03-08T07:50:21;2.60;99.90
31783;DHT22;18351;47.560;9.708;2024-03-08T07:52:48;2.60;99.90
31783;DHT22;18351;47.560;9.708;2024-03-08T07:55:13;2.70;99.90
31783;DHT22;18351;47.560;9.708;2024-03-08T07:57:40;2.70;99.90
31783;DHT22;18351;47.560;9.708;2024-03-08T08:00:06;2.90;99.90
31783;DHT22;18351;47.560;9.708;2024-03-08T08:02:33;2.90;99.90
31783;DHT22;18351;47.560;9.708;2024-03-08T08:05:00;3.00;99.90
31783;DHT22;18351;47.560;9.708;2024-03-08T08:07:26;3.00;99.90
31783;DHT22;18351;47.560;9.708;2024-03-08T08:09:53;3.10;99.90
31783;DHT22;18351;47.560;9.708;2024-03-08T08:12:18;3.10;99.90
31783;DHT22;18351;47.560;9.708;2024-03-08T08:14:44;3.20;99.90
31783;DHT22;18351;47.560;9.708;2024-03-08T08:17:10;3.20;99.90
31783;DHT22;18351;47.560;9.708;2024-03-08T08:19:45;3.30;99.90
31783;DHT22;18351;47.560;9.708;2024-03-08T08:22:11;3.40;99.90
31783;DHT22;18351;47.560;9.708;2024-03-08T08:24:37;3.40;99.90
31783;DHT22;18351;47.560;9.708;2024-03-08T08:27:03;3.60;99.90
31783;DHT22;18351;47.560;9.708;2024-03-08T08:29:29;3.70;99.90
31783;DHT22;18351;47.560;9.708;2024-03-08T08:31:57;3.70;99.90
31783;DHT22;18351;47.560;9.708;2024-03-08T08:34:24;3.70;99.90
31783;DHT22;18351;47.560;9.708;2024-03-08T08:36:52;3.90;99.90
31783;DHT22;18351;47.560;9.708;2024-03-08T08:39:18;4.00;99.90
31783;DHT22;18351;47.560;9.708;2024-03-08T08:41:44;4.00;99.90
31783;DHT22;18351;47.560;9.708;2024-03-08T08:44:09;4.10;99.90
31783;DHT22;18351;47.560;9.708;2024-03-08T08:46:37;4.20;99.90
31783;DHT22;18351;47.560;9.708;2024-03-08T08:49:03;4.50;99.90
31783;DHT22;18351;47.560;9.708;2024-03-08T08:51:31;4.50;99.90
31783;DHT22;18351;47.560;9.708;2024-03-08T08:53:59;4.50;99.90
31783;DHT22;18351;47.560;9.708;2024-03-08T08:56:24;4.60;99.90
31783;DHT22;18351;47.560;9.708;2024-03-08T08:58:51;4.50;99.90
31783;DHT22;18351;47.560;9.708;2024-03-08T09:01:17;4.60;99.90
31783;DHT22;18351;47.560;9.708;2024-03-08T09:03:43;4.50;99.90
31783;DHT22;18351;47.560;9.708;2024-03-08T09:06:12;4.50;99.90
31783;DHT22;18351;47.560;9.708;2024-03-08T09:08:39;4.50;99.90
31783;DHT22;18351;47.560;9.708;2024-03-08T09:11:04;4.80;99.90
31783;DHT22;18351;47.560;9.708;2024-03-08T09:13:30;4.90;99.90
31783;DHT22;18351;47.560;9.708;2024-03-08T09:15:56;5.20;99.90
31783;DHT22;18351;47.560;9.708;2024-03-08T09:18:21;5.30;99.90
31783;DHT22;18351;47.560;9.708;2024-03-08T09:20:47;5.10;99.90
31783;DHT22;18351;47.560;9.708;2024-03-08T09:23:13;5.10;99.90
31783;DHT22;18351;47.560;9.708;2024-03-08T09:25:40;5.20;99.90
31783;DHT22;18351;47.560;9.708;2024-03-08T09:28:06;5.30;99.90
31783;DHT22;18351;47.560;9.708;2024-03-08T09:30:31;5.50;99.90
31783;DHT22;18351;47.560;9.708;2024-03-08T09:32:57;5.80;99.90
31783;DHT22;18351;47.560;9.708;2024-03-08T09:35:23;6.00;99.90
31783;DHT22;18351;47.560;9.708;2024-03-08T09:37:48;6.10;99.90
31783;DHT22;18351;47.560;9.708;2024-03-08T09:40:16;6.30;99.90
31783;DHT22;18351;47.560;9.708;2024-03-08T09:42:45;6.40;99.90
31783;DHT22;18351;47.560;9.708;2024-03-08T09:45:12;6.90;99.90
31783;DHT22;18351;47.560;9.708;2024-03-08T09:47:39;7.00;99.90
31783;DHT22;18351;47.560;9.708;2024-03-08T09:50:07;7.30;99.90
31783;DHT22;18351;47.560;9.708;2024-03-08T09:52:46;7.30;99.90
31783;DHT22;18351;47.560;9.708;2024-03-08T09:55:12;7.10;99.90
31783;DHT22;18351;47.560;9.708;2024-03-08T09:57:38;7.00;99.90
31783;DHT22;18351;47.560;9.708;2024-03-08T10:00:05;7.00;99.90
31783;DHT22;18351;47.560;9.708;2024-03-08T10:02:45;6.90;99.90
31783;DHT22;18351;47.560;9.708;2024-03-08T10:05:12;7.10;99.90
31783;DHT22;18351;47.560;9.708;2024-03-08T10:07:37;7.20;99.90
31783;DHT22;18351;47.560;9.708;2024-03-08T10:10:03;7.20;99.90
31783;DHT22;18351;47.560;9.708;2024-03-08T10:12:29;7.20;99.90
31783;DHT22;18351;47.560;9.708;2024-03-08T10:14:55;7.30;99.90
31783;DHT22;18351;47.560;9.708;2024-03-08T10:17:21;7.40;99.90
31783;DHT22;18351;47.560;9.708;2024-03-08T10:19:51;7.50;99.90
31783;DHT22;18351;47.560;9.708;2024-03-08T10:22:18;7.70;99.90
31783;DHT22;18351;47.560;9.708;2024-03-08T10:24:47;7.80;99.90
31783;DHT22;18351;47.560;9.708;2024-03-08T10:27:16;7.90;99.90
31783;DHT22;18351;47.560;9.708;2024-03-08T10:29:41;8.10;99.90
31783;DHT22;18351;47.560;9.708;2024-03-08T10:32:09;8.10;99.90
31783;DHT22;18351;47.560;9.708;2024-03-08T10:34:35;8.10;99.90
31783;DHT22;18351;47.560;9.708;2024-03-08T10:37:04;8.10;99.90
31783;DHT22;18351;47.560;9.708;2024-03-08T10:39:34;8.10;99.90
31783;DHT22;18351;47.560;9.708;2024-03-08T10:42:03;8.00;99.90
31783;DHT22;18351;47.560;9.708;2024-03-08T10:47:15;7.90;99.90
31783;DHT22;18351;47.560;9.708;2024-03-08T10:52:34;8.00;99.90
31783;DHT22;18351;47.560;9.708;2024-03-08T10:55:01;8.00;99.90
31783;DHT22;18351;47.560;9.708;2024-03-08T10:57:27;8.10;99.90
31783;DHT22;18351;47.560;9.708;2024-03-08T10:59:54;8.10;99.90
31783;DHT22;18351;47.560;9.708;2024-03-08T11:02:20;8.10;99.90
31783;DHT22;18351;47.560;9.708;2024-03-08T11:04:50;8.20;99.90
31783;DHT22;18351;47.560;9.708;2024-03-08T11:07:16;8.30;99.90
31783;DHT22;18351;47.560;9.708;2024-03-08T11:09:47;8.40;99.90
31783;DHT22;18351;47.560;9.708;2024-03-08T11:12:26;8.30;99.90
31783;DHT22;18351;47.560;9.708;2024-03-08T11:14:55;8.40;99.90
31783;DHT22;18351;47.560;9.708;2024-03-08T11:19:57;8.50;99.90
31783;DHT22;18351;47.560;9.708;2024-03-08T11:22:29;8.60;99.90
31783;DHT22;18351;47.560;9.708;2024-03-08T11:25:04;8.50;99.90
31783;DHT22;18351;47.560;9.708;2024-03-08T11:27:35;8.60;99.90
31783;DHT22;18351;47.560;9.708;2024-03-08T11:30:07;8.60;99.90
31783;DHT22;18351;47.560;9.708;2024-03-08T11:32:48;8.60;99.90
31783;DHT22;18351;47.560;9.708;2024-03-08T11:35:21;8.60;99.90
31783;DHT22;18351;47.560;9.708;2024-03-08T11:37:48;8.70;99.90
31783;DHT22;18351;47.560;9.708;2024-03-08T11:40:14;8.70;99.90
31783;DHT22;18351;47.560;9.708;2024-03-08T11:42:45;8.60;99.90
31783;DHT22;18351;47.560;9.708;2024-03-08T11:45:15;8.60;99.90
31783;DHT22;18351;47.560;9.708;2024-03-08T11:47:43;8.50;99.90
31783;DHT22;18351;47.560;9.708;2024-03-08T11:50:12;8.60;99.90
31783;DHT22;18351;47.560;9.708;2024-03-08T11:52:38;8.60;99.90
31783;DHT22;18351;47.560;9.708;2024-03-08T11:55:04;8.60;99.90
31783;DHT22;18351;47.560;9.708;2024-03-08T11:57:31;8.50;99.90
31783;DHT22;18351;47.560;9.708;2024-03-08T11:59:58;8.60;99.90
31783;DHT22;18351;47.560;9.708;2024-03-08T12:02:24;8.60;99.90
31783;DHT22;18351;47.560;9.708;2024-03-08T12:05:00;8.70;99.90
31783;DHT22;18351;47.560;9.708;2024-03-08T12:07:26;8.70;99.90
31783;DHT22;18351;47.560;9.708;2024-03-08T12:10:21;8.70;99.90
31783;DHT22;18351;47.560;9.708;2024-03-08T12:12:49;8.80;99.90
31783;DHT22;18351;47.560;9.708;2024-03-08T12:15:16;8.90;99.90
31783;DHT22;18351;47.560;9.708;2024-03-08T12:17:43;9.00;99.90
31783;DHT22;18351;47.560;9.708;2024-03-08T12:20:20;9.00;99.90
31783;DHT22;18351;47.560;9.708;2024-03-08T12:22:47;9.10;99.90
31783;DHT22;18351;47.560;9.708;2024-03-08T12:25:14;8.90;99.90
31783;DHT22;18351;47.560;9.708;2024-03-08T12:27:41;8.70;99.90
31783;DHT22;18351;47.560;9.708;2024-03-08T12:30:17;8.60;99.90
31783;DHT22;18351;47.560;9.708;2024-03-08T12:33:03;8.60;99.90
31783;DHT22;18351;47.560;9.708;2024-03-08T12:35:30;8.60;99.90
31783;DHT22;18351;47.560;9.708;2024-03-08T12:37:58;8.80;99.90
31783;DHT22;18351;47.560;9.708;2024-03-08T12:40:29;8.90;99.90
31783;DHT22;18351;47.560;9.708;2024-03-08T12:42:59;9.00;99.90
31783;DHT22;18351;47.560;9.708;2024-03-08T12:45:24;9.10;99.90
31783;DHT22;18351;47.560;9.708;2024-03-08T12:47:54;9.00;99.90
31783;DHT22;18351;47.560;9.708;2024-03-08T12:50:21;8.90;99.90
31783;DHT22;18351;47.560;9.708;2024-03-08T12:52:47;8.90;99.90
31783;DHT22;18351;47.560;9.708;2024-03-08T12:55:14;8.90;99.90
31783;DHT22;18351;47.560;9.708;2024-03-08T12:57:41;8.90;99.90
31783;DHT22;18351;47.560;9.708;2024-03-08T13:00:07;8.90;99.90
31783;DHT22;18351;47.560;9.708;2024-03-08T13:02:39;8.90;99.90
31783;DHT22;18351;47.560;9.708;2024-03-08T13:05:05;9.00;99.90
31783;DHT22;18351;47.560;9.708;2024-03-08T13:07:31;9.10;99.90
31783;DHT22;18351;47.560;9.708;2024-03-08T13:09:57;9.20;99.90
31783;DHT22;18351;47.560;9.708;2024-03-08T13:12:25;9.30;99.90
31783;DHT22;18351;47.560;9.708;2024-03-08T13:14:51;9.50;99.90
31783;DHT22;18351;47.560;9.708;2024-03-08T13:17:17;9.50;99.90
31783;DHT22;18351;47.560;9.708;2024-03-08T13:19:44;9.40;99.90
31783;DHT22;18351;47.560;9.708;2024-03-08T13:22:10;9.30;99.90
31783;DHT22;18351;47.560;9.708;2024-03-08T13:24:41;9.20;99.90
31783;DHT22;18351;47.560;9.708;2024-03-08T13:27:09;9.10;99.90
31783;DHT22;18351;47.560;9.708;2024-03-08T13:29:49;9.00;99.90
31783;DHT22;18351;47.560;9.708;2024-03-08T13:32:18;8.80;99.90
31783;DHT22;18351;47.560;9.708;2024-03-08T13:34:46;8.60;99.90
31783;DHT22;18351;47.560;9.708;2024-03-08T13:37:13;8.70;99.90
31783;DHT22;18351;47.560;9.708;2024-03-08T13:39:41;8.70;99.90
31783;DHT22;18351;47.560;9.708;2024-03-08T13:42:10;8.60;99.90
31783;DHT22;18351;47.560;9.708;2024-03-08T13:44:44;8.70;99.90
31783;DHT22;18351;47.560;9.708;2024-03-08T13:47:09;8.80;99.90
31783;DHT22;18351;47.560;9.708;2024-03-08T13:49:37;8.70;99.90
31783;DHT22;18351;47.560;9.708;2024-03-08T13:52:03;8.80;99.90
31783;DHT22;18351;47.560;9.708;2024-03-08T13:54:29;9.00;99.90
31783;DHT22;18351;47.560;9.708;2024-03-08T13:56:57;9.10;99.90
31783;DHT22;18351;47.560;9.708;2024-03-08T13:59:23;9.10;99.90
31783;DHT22;18351;47.560;9.708;2024-03-08T14:01:49;9.20;99.90
31783;DHT22;18351;47.560;9.708;2024-03-08T14:04:15;9.20;99.90
31783;DHT22;18351;47.560;9.708;2024-03-08T14:06:44;9.30;99.90
31783;DHT22;18351;47.560;9.708;2024-03-08T14:09:11;9.30;99.90
31783;DHT22;18351;47.560;9.708;2024-03-08T14:11:45;9.30;99.90
31783;DHT22;18351;47.560;9.708;2024-03-08T14:14:11;9.20;99.90
31783;DHT22;18351;47.560;9.708;2024-03-08T14:16:38;9.20;99.90
31783;DHT22;18351;47.560;9.708;2024-03-08T14:19:04;9.40;99.90
31783;DHT22;18351;47.560;9.708;2024-03-08T14:21:31;9.40;99.90
31783;DHT22;18351;47.560;9.708;2024-03-08T14:23:57;9.50;99.90
31783;DHT22;18351;47.560;9.708;2024-03-08T14:26:22;9.60;99.90
31783;DHT22;18351;47.560;9.708;2024-03-08T14:28:48;9.60;99.90
31783;DHT22;18351;47.560;9.708;2024-03-08T14:31:17;9.50;99.90
31783;DHT22;18351;47.560;9.708;2024-03-08T14:33:44;9.60;99.90
31783;DHT22;18351;47.560;9.708;2024-03-08T14:36:14;9.60;99.90
31783;DHT22;18351;47.560;9.708;2024-03-08T14:38:42;9.70;99.90
31783;DHT22;18351;47.560;9.708;2024-03-08T14:41:08;9.60;99.90
31783;DHT22;18351;47.560;9.708;2024-03-08T14:43:33;9.60;99.90
31783;DHT22;18351;47.560;9.708;2024-03-08T14:45:59;9.70;99.90
31783;DHT22;18351;47.560;9.708;2024-03-08T14:48:25;9.70;99.90
31783;DHT22;18351;47.560;9.708;2024-03-08T14:50:50;9.70;99.90
31783;DHT22;18351;47.560;9.708;2024-03-08T14:53:16;9.50;99.90
31783;DHT22;18351;47.560;9.708;2024-03-08T14:55:42;9.50;99.90
31783;DHT22;18351;47.560;9.708;2024-03-08T14:58:08;9.60;99.90
31783;DHT22;18351;47.560;9.708;2024-03-08T15:00:34;9.60;99.90
31783;DHT22;18351;47.560;9.708;2024-03-08T15:03:01;9.60;99.90
31783;DHT22;18351;47.560;9.708;2024-03-08T15:05:30;9.60;99.90
31783;DHT22;18351;47.560;9.708;2024-03-08T15:07:57;9.70;99.90
31783;DHT22;18351;47.560;9.708;2024-03-08T15:10:26;9.70;99.90
31783;DHT22;18351;47.560;9.708;2024-03-08T15:12:51;9.80;99.90
31783;DHT22;18351;47.560;9.708;2024-03-08T15:15:21;9.80;99.90
31783;DHT22;18351;47.560;9.708;2024-03-08T15:17:48;9.80;99.90
31783;DHT22;18351;47.560;9.708;2024-03-08T15:20:14;9.90;99.90
31783;DHT22;18351;47.560;9.708;2024-03-08T15:22:49;9.80;99.90
31783;DHT22;18351;47.560;9.708;2024-03-08T15:25:15;9.80;99.90
31783;DHT22;18351;47.560;9.708;2024-03-08T15:27:52;9.90;99.90
31783;DHT22;18351;47.560;9.708;2024-03-08T15:30:18;9.90;99.90
31783;DHT22;18351;47.560;9.708;2024-03-08T15:32:48;9.80;99.90
31783;DHT22;18351;47.560;9.708;2024-03-08T15:35:15;9.70;99.90
31783;DHT22;18351;47.560;9.708;2024-03-08T15:37:45;9.70;99.90
31783;DHT22;18351;47.560;9.708;2024-03-08T15:40:12;9.70;99.90
31783;DHT22;18351;47.560;9.708;2024-03-08T15:42:55;9.60;99.90
31783;DHT22;18351;47.560;9.708;2024-03-08T15:45:22;9.50;99.90
31783;DHT22;18351;47.560;9.708;2024-03-08T15:47:53;9.50;99.90
31783;DHT22;18351;47.560;9.708;2024-03-08T15:50:19;9.40;99.90
31783;DHT22;18351;47.560;9.708;2024-03-08T15:52:49;9.20;99.90
31783;DHT22;18351;47.560;9.708;2024-03-08T15:55:18;9.10;99.90